Latest Weather Observations for Leinster

IDW60801

Issued at 7:33 pm WST Wednesday 28 September 2016 (issued every 30 minutes, with the page automatically refreshed every 10 minutes)

About weather observations | Map of weather stations | Latest weather observations for WA | Other Formats
Station Details ID: 012314 Name: LEINSTER AERO Lat: -27.84 Lon: 120.70 Height: 497.0 m
Data from the previous 72 hours. | See also: Recent months at Leinster
Date/Time
WST
Temp
°C
App
Temp
°C
Dew
Point
°C
Rel
Hum
%
Delta-T
°C
Wind Press
QNH
hPa
Press
MSL
hPa
Rain since
9am
mm
Dir  Spd
km/h
Gust
km/h
Spd
kts
Gust
kts
28/07:30pm 13.9 9.2 -5.3 26 7.3 S 11 13 6 7 1019.6 1018.1 0.0
28/07:00pm 14.5 9.8 -5.3 25 7.6 S 11 15 6 8 1019.2 1017.7 0.0
28/06:30pm 15.2 10.1 -5.2 24 7.9 S 13 19 7 10 1019.0 1017.5 0.0
28/06:00pm 15.7 9.5 -5.3 23 8.2 SSW 19 26 10 14 1018.5 1017.0 0.0
28/05:30pm 16.3 10.4 -5.4 22 8.5 SSW 17 26 9 14 1018.1 1016.7 0.0
28/05:00pm 16.9 10.7 -4.9 22 8.7 S 19 26 10 14 1017.7 1016.2 0.0
28/04:30pm 17.3 10.8 -5.8 20 9.1 S 20 32 11 17 1017.5 1016.0 0.0
28/04:00pm 16.8 9.6 -5.6 21 8.8 S 24 33 13 18 1017.2 1015.7 0.0
28/03:30pm 17.8 10.6 -5.4 20 9.2 SSW 24 33 13 18 1017.2 1015.7 0.0
28/03:00pm 17.0 9.7 -6.1 20 9.0 SSW 24 32 13 17 1017.4 1015.9 0.0
28/02:30pm 16.4 9.5 -6.0 21 8.7 S 22 37 12 20 1017.2 1015.7 0.0
28/02:00pm 16.5 9.6 -5.9 21 8.7 SSW 22 33 12 18 1017.5 1016.0 0.0
28/01:30pm 16.4 9.1 -6.0 21 8.7 SSW 24 39 13 21 1017.6 1016.1 0.0
28/01:00pm 16.4 9.3 -4.8 23 8.4 SSW 24 43 13 23 1017.9 1016.4 0.0
28/12:30pm 15.3 8.6 -4.6 25 7.9 SSW 22 33 12 18 1018.3 1016.8 0.0
28/12:00pm 14.6 7.1 -4.7 26 7.5 SW 26 43 14 23 1018.6 1017.1 0.0
28/11:59am 14.2 6.2 -5.5 25 7.5 SW 28 46 15 25 1018.6 1017.1 0.0
28/11:30am 13.7 5.0 -5.4 26 7.3 S 32 46 17 25 1018.9 1017.4 0.0
28/11:00am 14.2 5.5 -5.0 26 7.4 SSW 32 44 17 24 1018.9 1017.4 0.0
28/10:30am 13.2 4.8 -5.9 26 7.2 SW 30 46 16 25 1019.3 1017.8 0.0
28/10:08am 13.1 4.4 -5.0 28 6.9 SSW 32 50 17 27 1019.2 1017.7 0.0
28/10:00am 12.3 3.5 -6.1 27 6.8 SSW 32 48 17 26 1019.3 1017.8 0.0
28/09:33am 12.4 4.3 -3.4 33 6.2 SW 30 48 16 26 1019.2 1017.7 0.0
28/09:30am 11.6 3.1 -3.7 34 5.9 SW 32 48 17 26 1019.2 1017.7 0.0
28/09:00am 11.2 2.7 -3.7 35 5.7 SSW 32 50 17 27 1019.1 1017.6 0.0
28/08:55am 11.6 3.1 -3.3 35 5.8 SSW 32 50 17 27 1019.1 1017.6 0.0
28/08:30am 10.7 1.5 -1.0 44 4.8 SSW 37 50 20 27 1018.9 1017.4 0.0
28/08:00am 9.8 1.4 -1.0 47 4.4 SW 33 48 18 26 1018.5 1017.0 0.0
28/07:44am 10.0 2.0 0.3 51 4.0 SSW 32 50 17 27 1018.1 1016.7 0.0
28/07:30am 9.4 0.9 0.6 54 3.7 SSW 35 50 19 27 1018.0 1016.6 0.0
28/07:00am 8.5 -0.1 0.5 57 3.3 SSW 35 50 19 27 1017.7 1016.2 0.0
28/06:39am 8.7 0.8 0.9 58 3.3 SSW 32 52 17 28 1017.3 1015.8 0.0
28/06:30am 8.5 0.4 1.2 60 3.1 SW 33 48 18 26 1017.2 1015.7 0.0
28/06:00am 8.2 0.3 1.1 61 3.0 SW 32 50 17 27 1017.0 1015.5 0.0
28/05:32am 8.2 1.2 2.2 66 2.6 SW 28 50 15 27 1016.7 1015.2 0.0
28/05:30am 8.2 1.7 2.4 67 2.5 SW 26 37 14 20 1016.6 1015.1 0.0
28/05:00am 8.5 2.4 2.7 67 2.5 SW 24 30 13 16 1016.0 1014.5 0.0
28/04:30am 8.8 2.2 1.9 62 3.0 SW 26 37 14 20 1015.5 1014.0 0.0
28/04:00am 9.3 3.1 2.2 61 3.1 SW 24 33 13 18 1015.1 1013.6 0.0
28/03:30am 9.8 3.0 0.7 53 3.8 SW 26 37 14 20 1014.7 1013.2 0.0
28/03:00am 10.4 3.0 -0.4 47 4.5 SW 28 43 15 23 1014.3 1012.7 0.0
28/02:30am 11.2 2.4 1.2 50 4.3 SW 37 59 20 32 1014.1 1012.5 0.0
28/02:12am 11.8 4.7 3.3 56 3.9 SW 30 50 16 27 1013.8 1012.3 0.0
28/02:00am 12.1 5.3 5.3 63 3.2 SW 30 44 16 24 1013.7 1012.2 0.0
28/01:30am 12.7 4.9 5.1 60 3.6 SW 35 48 19 26 1013.5 1012.0 0.0
28/01:00am 13.2 5.8 5.1 58 3.9 SW 33 52 18 28 1013.4 1011.9 0.0
28/12:44am 13.7 7.0 5.8 59 3.8 SW 30 50 16 27 1013.2 1011.7 0.0
28/12:30am 14.3 8.2 6.4 59 3.9 SW 28 44 15 24 1013.2 1011.7 0.0
28/12:00am 14.6 7.3 5.4 54 4.5 SW 33 52 18 28 1013.0 1011.5 0.0
 
Date/Time
WST
Temp
°C
App
Temp
°C
Dew
Point
°C
Rel
Hum
%
Delta-T
°C
Wind Press
QNH
hPa
Press
MSL
hPa
Rain since
9am
mm
Dir  Spd
km/h
Gust
km/h
Spd
kts
Gust
kts
27/11:31pm 15.9 9.0 2.3 40 6.3 WSW 28 46 15 25 1012.7 1011.1 0.0
27/11:30pm 15.8 8.8 2.2 40 6.2 WSW 28 44 15 24 1012.7 1011.1 0.0
27/11:05pm 16.4 8.6 1.7 37 6.7 WSW 32 50 17 27 1012.7 1011.1 0.0
27/11:00pm 16.4 8.3 1.3 36 6.8 WSW 33 50 18 27 1012.6 1011.0 0.0
27/10:30pm 17.1 8.8 1.9 36 7.0 WSW 35 57 19 31 1012.3 1010.7 0.0
27/10:00pm 18.3 10.7 2.6 35 7.4 WSW 32 50 17 27 1012.0 1010.4 0.0
27/09:30pm 19.4 12.1 2.3 32 8.1 WSW 30 48 16 26 1011.5 1010.0 0.0
27/09:22pm 19.5 12.5 1.9 31 8.3 WSW 28 48 15 26 1011.4 1009.9 0.0
27/09:00pm 20.0 12.9 1.4 29 8.7 WSW 28 39 15 21 1011.2 1009.7 0.0
27/08:30pm 20.8 13.5 0.1 25 9.5 WSW 28 46 15 25 1010.8 1009.2 0.0
27/08:29pm 20.7 13.3 -0.6 24 9.6 WSW 28 46 15 25 1010.8 1009.2 0.0
27/08:00pm 21.6 14.0 -2.3 20 10.5 W 28 43 15 23 1010.5 1008.9 0.0
27/07:30pm 21.7 15.2 -2.2 20 10.5 W 22 41 12 22 1010.3 1008.7 0.0
27/07:00pm 22.4 14.7 -3.1 18 11.1 W 28 43 15 23 1010.1 1008.5 0.0
27/06:30pm 23.2 15.3 -4.8 15 11.9 W 28 41 15 22 1009.8 1008.2 0.0
27/06:00pm 23.9 16.3 -5.2 14 12.4 W 26 43 14 23 1009.3 1007.8 0.0
27/05:41pm 24.6 16.7 -4.6 14 12.6 W 28 46 15 25 1009.0 1007.4 0.0
27/05:30pm 25.1 17.7 -3.3 15 12.6 WNW 26 35 14 19 1008.9 1007.3 0.0
27/05:00pm 25.5 17.2 -4.9 13 13.2 WNW 30 43 16 23 1008.8 1007.2 0.0
27/04:39pm 26.0 17.9 -6.7 11 13.8 W 28 48 15 26 1008.8 1007.2 0.0
27/04:30pm 26.2 18.2 -5.4 12 13.6 WNW 28 41 15 22 1008.8 1007.2 0.0
27/04:14pm 26.6 19.0 -5.1 12 13.8 WNW 26 54 14 29 1008.6 1007.0 0.0
27/04:00pm 26.4 18.4 -5.3 12 13.8 WNW 28 41 15 22 1008.8 1007.2 0.0
27/03:30pm 26.5 19.3 -5.2 12 13.8 WNW 24 37 13 20 1009.0 1007.4 0.0
27/03:00pm 27.0 19.7 -5.9 11 14.2 WNW 24 46 13 25 1009.3 1007.8 0.0
27/02:30pm 26.4 19.2 -5.3 12 13.7 WNW 24 37 13 20 1009.6 1008.1 0.0
27/02:00pm 26.1 18.9 -5.5 12 13.6 WNW 24 48 13 26 1010.2 1008.6 0.0
27/01:57pm 26.1 18.9 -5.5 12 13.6 WNW 24 48 13 26 1010.2 1008.6 0.0
27/01:30pm 25.2 18.9 -4.2 14 12.9 W 20 32 11 17 1010.7 1009.1 0.0
27/01:00pm 24.9 18.6 -4.4 14 12.7 WNW 20 32 11 17 1011.4 1009.9 0.0
27/12:30pm 25.0 18.7 -4.3 14 12.8 W 20 35 11 19 1012.1 1010.5 0.0
27/12:00pm 24.2 18.5 -4.0 15 12.3 WNW 17 33 9 18 1012.8 1011.3 0.0
27/11:30am 23.3 18.0 -3.9 16 11.8 WNW 15 30 8 16 1013.5 1012.0 0.0
27/11:00am 22.5 17.6 -3.7 17 11.3 WNW 13 20 7 11 1014.2 1012.6 0.0
27/10:30am 22.7 17.3 -4.4 16 11.5 NNW 15 22 8 12 1014.7 1013.2 0.0
27/10:00am 21.8 17.4 -2.1 20 10.6 N 11 22 6 12 1015.2 1013.7 0.0
27/09:30am 20.6 16.5 -3.1 20 10.2 N 9 15 5 8 1015.7 1014.2 0.0
27/09:00am 19.7 16.0 -2.6 22 9.6 NE 7 13 4 7 1016.2 1014.6 0.0
27/08:30am 18.3 14.8 -1.5 26 8.6 E 7 11 4 6 1016.5 1015.0 0.0
27/08:00am 16.3 12.8 -1.3 30 7.5 SE 7 9 4 5 1016.7 1015.2 0.0
27/07:30am 14.6 10.3 -1.5 33 6.7 SSE 11 13 6 7 1016.7 1015.2 0.0
27/07:00am 12.3 8.6 -3.1 34 6.1 S 7 9 4 5 1016.7 1015.2 0.0
27/06:30am 10.5 7.0 -3.2 38 5.3 SE 6 6 3 3 1016.7 1015.2 0.0
27/06:00am 8.9 5.3 -3.3 42 4.6 E 6 9 3 5 1016.7 1015.2 0.0
27/05:30am 9.7 6.2 -3.2 40 4.9 SE 6 7 3 4 1016.7 1015.2 0.0
27/05:00am 10.0 7.6 -3.0 40 5.0 CALM 0 0 0 0 1016.5 1015.0 0.0
27/04:30am 9.8 6.3 -3.1 40 5.0 NW 6 7 3 4 1016.5 1015.0 0.0
27/04:00am 10.0 6.4 -3.6 38 5.2 W 6 11 3 6 1016.3 1014.8 0.0
27/03:30am 9.6 7.1 -3.7 39 5.0 CALM 0 0 0 0 1016.0 1014.5 0.0
27/03:00am 9.6 7.1 -4.4 37 5.2 CALM 0 0 0 0 1016.0 1014.5 0.0
27/02:30am 10.1 7.5 -4.6 35 5.5 CALM 0 0 0 0 1016.2 1014.6 0.0
27/02:00am 10.0 7.4 -4.7 35 5.5 CALM 0 0 0 0 1016.4 1014.9 0.0
27/01:30am 10.0 7.4 -4.7 35 5.5 CALM 0 0 0 0 1016.7 1015.2 0.0
27/01:00am 10.3 7.7 -4.9 34 5.6 CALM 0 0 0 0 1016.9 1015.4 0.0
27/12:30am 10.9 8.4 -4.3 34 5.8 CALM 0 0 0 0 1017.1 1015.6 0.0
27/12:00am 10.6 8.0 -4.6 34 5.7 CALM 0 4 0 2 1017.4 1015.9 0.0
 
Date/Time
WST
Temp
°C
App
Temp
°C
Dew
Point
°C
Rel
Hum
%
Delta-T
°C
Wind Press
QNH
hPa
Press
MSL
hPa
Rain since
9am
mm
Dir  Spd
km/h
Gust
km/h
Spd
kts
Gust
kts
26/11:30pm 11.9 9.4 -4.2 32 6.2 CALM 0 0 0 0 1017.6 1016.1 0.0
26/11:00pm 12.4 8.6 -3.8 32 6.3 SSW 7 9 4 5 1017.8 1016.3 0.0
26/10:30pm 13.5 9.9 -3.7 30 6.8 SSE 6 7 3 4 1018.0 1016.6 0.0
26/10:00pm 14.0 10.4 -3.7 29 7.0 SE 6 7 3 4 1018.3 1016.8 0.0
26/09:30pm 13.8 9.8 -2.6 32 6.7 S 9 9 5 5 1018.1 1016.7 0.0
26/09:00pm 14.1 10.0 -2.8 31 6.8 SW 9 11 5 6 1018.3 1016.8 0.0
26/08:30pm 15.2 12.5 -2.2 30 7.2 S 2 6 1 3 1018.0 1016.6 0.0
26/08:00pm 15.7 13.4 -2.3 29 7.5 CALM 0 0 0 0 1017.8 1016.3 0.0
26/07:30pm 17.2 14.2 -1.9 27 8.1 SSE 4 6 2 3 1017.6 1016.1 0.0
26/07:00pm 18.2 16.0 -1.6 26 8.6 CALM 0 2 0 1 1017.3 1015.8 0.0
26/06:30pm 19.9 16.0 -1.8 23 9.5 SSW 9 13 5 7 1017.0 1015.5 0.0
26/06:00pm 20.8 16.4 -2.3 21 10.1 S 11 19 6 10 1016.8 1015.3 0.0
26/05:30pm 21.4 17.0 -2.5 20 10.4 SW 11 17 6 9 1016.5 1015.0 0.0
26/05:00pm 21.8 17.5 -1.5 21 10.4 SSE 11 20 6 11 1016.0 1014.5 0.0
26/04:30pm 22.0 17.4 -1.3 21 10.5 SSW 13 20 7 11 1016.0 1014.5 0.0
26/04:00pm 22.4 17.3 -1.6 20 10.8 WSW 15 24 8 13 1015.9 1014.4 0.0
26/03:30pm 21.7 17.1 -0.9 22 10.2 SW 13 20 7 11 1015.9 1014.4 0.0
26/03:00pm 22.4 18.3 -0.3 22 10.4 WSW 11 20 6 11 1015.8 1014.3 0.0
26/02:30pm 22.1 16.8 -0.6 22 10.4 SSW 17 26 9 14 1015.9 1014.4 0.0
26/02:00pm 21.5 17.1 0.1 24 9.8 S 13 24 7 13 1016.0 1014.5 0.0
26/01:30pm 21.5 16.3 0.1 24 9.8 SW 17 26 9 14 1016.4 1014.9 0.0
26/01:00pm 20.9 16.9 0.2 25 9.5 SSE 11 20 6 11 1016.8 1015.3 0.0
26/12:30pm 21.5 17.3 1.7 27 9.4 SSW 13 24 7 13 1017.2 1015.7 0.0
26/12:00pm 20.1 15.6 2.0 30 8.5 SSW 15 24 8 13 1017.5 1016.0 0.0
26/11:30am 19.7 15.5 1.7 30 8.4 SE 13 24 7 13 1018.1 1016.7 0.0
26/11:00am 18.9 15.5 1.9 32 7.9 SW 9 22 5 12 1018.7 1017.2 0.0
26/10:30am 18.4 14.7 2.3 34 7.6 S 11 20 6 11 1019.0 1017.5 0.0
26/10:00am 18.0 13.9 2.3 35 7.3 SE 13 20 7 11 1019.3 1017.8 0.0
26/09:30am 18.1 14.6 3.6 38 7.0 SE 11 19 6 10 1019.5 1018.0 0.0
26/09:00am 17.2 13.4 3.8 41 6.4 E 13 24 7 13 1019.5 1018.0 0.0
26/08:30am 15.9 11.4 4.3 46 5.6 E 17 24 9 13 1019.6 1018.1 0.0
26/08:00am 14.2 10.1 4.2 51 4.7 E 15 24 8 13 1019.7 1018.2 0.0
26/07:30am 13.4 9.2 4.0 53 4.4 ESE 15 22 8 12 1019.4 1017.9 0.0
26/07:00am 12.1 7.5 3.9 57 3.8 E 17 24 9 13 1018.8 1017.3 0.0
26/06:30am 10.4 6.5 3.4 62 3.1 E 13 19 7 10 1018.4 1016.9 0.0
26/06:00am 9.4 5.8 2.9 64 2.9 E 11 15 6 8 1018.0 1016.6 0.0
26/05:30am 9.3 5.6 2.6 63 2.9 E 11 15 6 8 1017.7 1016.2 0.0
26/05:00am 9.6 6.3 2.2 60 3.2 ESE 9 13 5 7 1017.5 1016.0 0.0
26/04:30am 9.8 6.4 1.9 58 3.4 SE 9 11 5 6 1017.0 1015.5 0.0
26/04:00am 10.4 6.6 2.0 56 3.7 SE 11 13 6 7 1016.6 1015.1 0.0
26/03:30am 11.1 6.6 2.2 54 3.9 SSE 15 19 8 10 1016.2 1014.6 0.0
26/03:00am 11.5 7.0 2.0 52 4.2 SSE 15 20 8 11 1015.9 1014.4 0.0
26/02:30am 12.1 6.8 2.0 50 4.5 SSE 19 32 10 17 1015.7 1014.2 0.0
26/02:00am 12.6 6.4 1.9 48 4.7 SSE 24 35 13 19 1015.4 1013.9 0.0
26/01:30am 13.0 6.7 1.4 45 5.1 S 24 32 13 17 1015.4 1013.9 0.0
26/01:00am 13.4 7.0 1.1 43 5.4 SSE 24 35 13 19 1015.6 1014.1 0.0
26/12:30am 14.0 7.9 0.6 40 5.8 SSE 22 30 12 16 1015.6 1014.1 0.0
26/12:00am 14.5 8.0 0.4 38 6.1 SSE 24 32 13 17 1015.8 1014.3 0.0
 
Date/Time
WST
Temp
°C
App
Temp
°C
Dew
Point
°C
Rel
Hum
%
Delta-T
°C
Wind Press
QNH
hPa
Press
MSL
hPa
Rain since
9am
mm
Dir  Spd
km/h
Gust
km/h
Spd
kts
Gust
kts
25/11:30pm 14.9 8.4 0.4 37 6.4 SSE 24 32 13 17 1015.7 1014.2 0.0
25/11:00pm 15.2 8.6 -0.5 34 6.8 S 24 32 13 17 1015.8 1014.3 0.0
25/10:30pm 14.4 9.1 -3.9 28 7.3 SSW 15 20 8 11 1015.7 1014.2 0.0
25/10:00pm 14.7 9.7 -4.1 27 7.4 SSW 13 17 7 9 1015.8 1014.3 0.0
25/09:30pm 15.3 10.3 -4.6 25 7.9 S 13 15 7 8 1015.9 1014.4 0.0
25/09:00pm 16.2 11.2 -4.4 24 8.2 SSW 13 15 7 8 1015.9 1014.4 0.0
25/08:30pm 17.0 11.6 -4.3 23 8.6 SSW 15 19 8 10 1015.7 1014.2 0.0
25/08:00pm 16.8 12.2 -3.9 24 8.4 SSW 11 13 6 7 1015.4 1013.9 0.0

Other Formats:

Comma delimited format used in spreadsheet applications
http://www.bom.gov.au/fwo/IDW60801/IDW60801.95448.axf

JavaScript Object Notation format (JSON) in row-major order
http://www.bom.gov.au/fwo/IDW60801/IDW60801.95448.json